San Clemente, CA

1:20 AM PDT on July 28, 2017 (GMT -0700)
The Coast | | Change Station

Elev 350 ft 33.45 °N, 117.64 °W | Updated 5 seconds ago

Partly Cloudy
Partly Cloudy
64.6 °F
Feels Like 64.6 °F
N
0.0
Wind Variable Wind from West
Gusts 2.0 mph

Today
High -- | Low -- °F
--% Chance of Precip.
Yesterday
High -- | Low -- °F
Precip. -- in
Pressure 29.91 in
Visibility 7.0 miles
Clouds Scattered Clouds 1000 ft
Scattered Clouds 10000 ft
Dew Point 63 °F
Humidity 94%
Rainfall 0.00 in
Snow Depth Not available.
6:00 AM 7:53 PM
Waxing Crescent, 28% visible
METAR KNFG 280755Z 00000KT 7SM SCT010 SCT100 13/12 A2991 RMK AO2 SLP128 T01280122 402220128 $
Pressure 29.91 in
Visibility 7.0 miles
Clouds Scattered Clouds 1000 ft
Scattered Clouds 10000 ft
Dew Point 63 °F
Humidity 94%
Rainfall 0.00 in
Snow Depth Not available.
6:00 AM 7:53 PM
Waxing Crescent, 28% visible
METAR KNFG 280755Z 00000KT 7SM SCT010 SCT100 13/12 A2991 RMK AO2 SLP128 T01280122 402220128 $

Get Severe Weather Alerts

Thanks for signing up!

Be on the lookout for a verification email in your inbox.

You'll start receiving the daily forecast at 6 AM.

×

10-Day Weather Forecast

Almanac

Astronomy

Jul. 28, 2017 Rise Set
Actual Time
Civil Twilight
Nautical Twilight
Astronomical Twilight
Moon
Length of Visible Light
Length of Day
Tomorrow will be .
, % of the Moon is Illuminated

Today's Extremes

State Highs State Lows

Community

WunderPhotos

Category 6

Welcome to Category 6. This is the collective home for Weather Underground's featured writeups by Dr. Jeff Masters (right), Bob Henson (left), Chris Burt, and other regular contributors.

Nearby

Air Quality

  Air Quality AQ Index Pollutant
Not available.

Snow Depth

Station Depth Elevation

Earthquake Activity

City Distance Mag. Time & Date
Minimum magnitude displayed is 2.5.

Coastal Water Temperatures

Place Temperature

Stations

Nearby Weather Stations

Station Location Temp. Windchill Dew Point Humidity Wind Precip. Elev Updated Type
                   

Watches & Warnings

There are currently no watches in effect.